createdAt,value
2018-10-02T00:00:55.912Z,9.5
2018-10-02T00:01:55.981Z,9.5
2018-10-02T00:02:55.857Z,9.5
2018-10-02T00:03:55.948Z,9.5
2018-10-02T00:04:55.854Z,9.5
2018-10-02T00:05:55.861Z,9.5
2018-10-02T00:06:55.934Z,9.5
2018-10-02T00:07:55.864Z,9.56
2018-10-02T00:08:55.879Z,9.56
2018-10-02T00:09:55.908Z,9.56
2018-10-02T00:10:55.870Z,9.63
2018-10-02T00:11:55.847Z,9.63
2018-10-02T00:12:55.843Z,9.69
2018-10-02T00:13:55.887Z,9.69
2018-10-02T00:14:55.886Z,9.69
2018-10-02T00:15:55.988Z,9.69
2018-10-02T00:16:55.845Z,9.75
2018-10-02T00:17:55.960Z,9.75
2018-10-02T00:18:55.839Z,9.75
2018-10-02T00:19:55.920Z,9.81
2018-10-02T00:20:55.897Z,9.75
2018-10-02T00:21:55.909Z,9.75
2018-10-02T00:22:56.255Z,9.75
2018-10-02T00:23:55.876Z,9.75
2018-10-02T00:24:56.086Z,9.75
2018-10-02T00:25:55.836Z,9.75
2018-10-02T00:26:55.967Z,9.69
2018-10-02T00:27:56.141Z,9.69
2018-10-02T00:28:55.838Z,9.69
2018-10-02T00:29:55.869Z,9.69
2018-10-02T00:30:55.870Z,9.69
2018-10-02T00:31:57.224Z,9.69
2018-10-02T00:32:55.847Z,9.63
2018-10-02T00:33:56.248Z,9.63
2018-10-02T00:34:55.862Z,9.63
2018-10-02T00:35:56.107Z,9.63
2018-10-02T00:36:55.790Z,9.63
2018-10-02T00:37:56.067Z,9.63
2018-10-02T00:38:55.866Z,9.63
2018-10-02T00:39:56.181Z,9.63
2018-10-02T00:40:55.890Z,9.56
2018-10-02T00:41:55.943Z,9.63
2018-10-02T00:42:56.175Z,9.56
2018-10-02T00:43:55.947Z,9.5
2018-10-02T00:44:55.835Z,9.5
2018-10-02T00:45:55.864Z,9.5
2018-10-02T00:46:56.132Z,9.5
2018-10-02T00:47:55.907Z,9.44
2018-10-02T00:48:55.837Z,9.44
2018-10-02T00:49:55.846Z,9.44
2018-10-02T00:50:55.770Z,9.38
2018-10-02T00:51:55.887Z,9.31
2018-10-02T00:52:55.885Z,9.38
2018-10-02T00:53:55.839Z,9.38
2018-10-02T00:54:56.234Z,9.38
2018-10-02T00:55:55.827Z,9.38
2018-10-02T00:56:55.801Z,9.31
2018-10-02T00:57:55.800Z,9.38
2018-10-02T00:58:55.805Z,9.31
2018-10-02T00:59:55.815Z,9.38
2018-10-02T01:00:55.923Z,9.31
2018-10-02T01:01:55.827Z,9.31
2018-10-02T01:02:55.868Z,9.31
2018-10-02T01:03:55.875Z,9.31
2018-10-02T01:04:56.055Z,9.31
2018-10-02T01:05:55.934Z,9.31
2018-10-02T01:06:55.900Z,9.38
2018-10-02T01:07:55.778Z,9.31
2018-10-02T01:08:55.763Z,9.25
2018-10-02T01:09:56.168Z,9.25
2018-10-02T01:10:55.840Z,9.25
2018-10-02T01:11:55.784Z,9.25
2018-10-02T01:12:55.904Z,9.25
2018-10-02T01:13:55.991Z,9.25
2018-10-02T01:14:55.925Z,9.19
2018-10-02T01:15:56.172Z,9.19
2018-10-02T01:16:55.743Z,9.13
2018-10-02T01:17:55.764Z,9.13
2018-10-02T01:18:55.757Z,9.13
2018-10-02T01:19:55.814Z,9.13
2018-10-02T01:20:55.871Z,9.13
2018-10-02T01:21:55.778Z,9.06
2018-10-02T01:22:55.949Z,9.06
2018-10-02T01:23:55.756Z,9
2018-10-02T01:24:55.760Z,9
2018-10-02T01:25:55.797Z,8.94
2018-10-02T01:26:55.780Z,8.88
2018-10-02T01:27:55.752Z,8.88
2018-10-02T01:28:55.855Z,8.88
2018-10-02T01:29:55.760Z,8.88
2018-10-02T01:30:56.028Z,8.88
2018-10-02T01:31:55.795Z,8.81
2018-10-02T01:32:55.815Z,8.81
2018-10-02T01:33:55.749Z,8.81
2018-10-02T01:34:55.734Z,8.75
2018-10-02T01:35:55.773Z,8.81
2018-10-02T01:36:55.749Z,8.81
2018-10-02T01:37:55.741Z,8.81
2018-10-02T01:38:55.751Z,8.81
2018-10-02T01:39:55.761Z,8.81
2018-10-02T01:40:55.734Z,8.81
2018-10-02T01:41:55.725Z,8.81
2018-10-02T01:42:55.777Z,8.75
2018-10-02T01:43:55.820Z,8.75
2018-10-02T01:44:56.090Z,8.75
2018-10-02T01:45:55.710Z,8.75
2018-10-02T01:46:55.861Z,8.69
2018-10-02T01:47:55.798Z,8.69
2018-10-02T01:48:55.828Z,8.63
2018-10-02T01:49:55.945Z,8.69
2018-10-02T01:50:55.872Z,8.63
2018-10-02T01:51:55.827Z,8.63
2018-10-02T01:52:55.963Z,8.56
2018-10-02T01:53:55.973Z,8.56
2018-10-02T01:54:55.800Z,8.5
2018-10-02T01:55:55.735Z,8.56
2018-10-02T01:56:55.716Z,8.5
2018-10-02T01:57:55.819Z,8.5
2018-10-02T01:58:55.735Z,8.5
2018-10-02T01:59:55.670Z,8.44
2018-10-02T02:00:55.732Z,8.44
2018-10-02T02:01:55.758Z,8.44
2018-10-02T02:02:55.683Z,8.44
2018-10-02T02:03:55.980Z,8.44
2018-10-02T02:04:55.696Z,8.38
2018-10-02T02:05:55.699Z,8.31
2018-10-02T02:06:55.716Z,8.31
2018-10-02T02:07:55.686Z,8.31
2018-10-02T02:08:55.860Z,8.31
2018-10-02T02:09:55.717Z,8.38
2018-10-02T02:10:55.681Z,8.31
2018-10-02T02:11:55.702Z,8.38
2018-10-02T02:12:55.908Z,8.31
2018-10-02T02:13:55.688Z,8.38
2018-10-02T02:14:55.705Z,8.38
2018-10-02T02:15:55.677Z,8.38
2018-10-02T02:16:55.675Z,8.38
2018-10-02T02:17:55.681Z,8.38
2018-10-02T02:18:55.654Z,8.38
2018-10-02T02:19:55.662Z,8.38
2018-10-02T02:20:55.828Z,8.38
2018-10-02T02:21:55.986Z,8.31
2018-10-02T02:22:55.750Z,8.31
2018-10-02T02:23:55.845Z,8.25
2018-10-02T02:24:55.787Z,8.31
2018-10-02T02:25:55.804Z,8.19
2018-10-02T02:26:56.071Z,8.19
2018-10-02T02:27:55.760Z,8.19
2018-10-02T02:28:55.865Z,8.19
2018-10-02T02:29:55.796Z,8.19
2018-10-02T02:30:55.820Z,8.13
2018-10-02T02:31:55.679Z,8.13
2018-10-02T02:32:55.689Z,8.06
2018-10-02T02:33:55.809Z,8.06
2018-10-02T02:34:55.642Z,8
2018-10-02T02:35:55.656Z,8
2018-10-02T02:36:56.152Z,8
2018-10-02T02:37:55.648Z,8
2018-10-02T02:38:55.616Z,8
2018-10-02T02:39:55.638Z,7.94
2018-10-02T02:40:55.658Z,7.94
2018-10-02T02:41:55.693Z,7.87
2018-10-02T02:42:55.617Z,7.94
2018-10-02T02:43:55.679Z,7.87
2018-10-02T02:44:55.643Z,7.94
2018-10-02T02:46:55.760Z,7.87
2018-10-02T02:47:55.807Z,7.81
2018-10-02T02:48:55.765Z,7.81
2018-10-02T02:49:55.632Z,7.81
2018-10-02T02:50:55.637Z,7.75
2018-10-02T02:51:55.678Z,7.75
2018-10-02T02:52:55.639Z,7.75
2018-10-02T02:53:55.622Z,7.75
2018-10-02T02:54:55.646Z,7.69
2018-10-02T02:55:55.624Z,7.69
2018-10-02T02:56:55.791Z,7.69
2018-10-02T02:57:55.838Z,7.62
2018-10-02T02:58:55.639Z,7.62
2018-10-02T02:59:55.942Z,7.62
2018-10-02T03:00:55.621Z,7.56
2018-10-02T03:01:55.658Z,7.56
2018-10-02T03:02:55.628Z,7.62
2018-10-02T03:03:55.673Z,7.56
2018-10-02T03:04:55.608Z,7.62
2018-10-02T03:05:55.627Z,7.62
2018-10-02T03:06:55.698Z,7.62
2018-10-02T03:07:55.692Z,7.62
2018-10-02T03:08:55.636Z,7.56
2018-10-02T03:09:55.707Z,7.56
2018-10-02T03:10:55.719Z,7.5
2018-10-02T03:11:55.704Z,7.56
2018-10-02T03:12:55.692Z,7.56
2018-10-02T03:13:55.684Z,7.56
2018-10-02T03:14:55.632Z,7.5
2018-10-02T03:15:55.812Z,7.56
2018-10-02T03:16:55.586Z,7.56
2018-10-02T03:17:55.591Z,7.56
2018-10-02T03:18:55.620Z,7.62
2018-10-02T03:19:55.737Z,7.62
2018-10-02T03:20:55.686Z,7.69
2018-10-02T03:21:56.750Z,7.62
2018-10-02T03:22:55.684Z,7.62
2018-10-02T03:23:56.070Z,7.62
2018-10-02T03:24:55.789Z,7.62
2018-10-02T03:25:55.719Z,7.62
2018-10-02T03:26:55.572Z,7.62
2018-10-02T03:27:55.776Z,7.62
2018-10-02T03:28:55.620Z,7.69
2018-10-02T03:29:55.568Z,7.69
2018-10-02T03:30:55.613Z,7.69
2018-10-02T03:31:56.011Z,7.69
2018-10-02T03:32:55.608Z,7.69
2018-10-02T03:33:55.750Z,7.75
2018-10-02T03:34:55.590Z,7.75
2018-10-02T03:35:55.575Z,7.75
2018-10-02T03:36:55.981Z,7.75
2018-10-02T03:37:56.600Z,7.81
2018-10-02T03:38:55.555Z,7.75
2018-10-02T03:39:55.963Z,7.75
2018-10-02T03:40:55.684Z,7.75
2018-10-02T03:41:55.810Z,7.81
2018-10-02T03:42:55.819Z,7.75
2018-10-02T03:43:55.609Z,7.81
2018-10-02T03:44:55.700Z,7.75
2018-10-02T03:45:55.633Z,7.75
2018-10-02T03:46:55.649Z,7.75
2018-10-02T03:47:55.852Z,7.75
2018-10-02T03:48:56.661Z,7.81
2018-10-02T03:49:55.881Z,7.75
2018-10-02T03:50:55.587Z,7.81
2018-10-02T03:51:55.643Z,7.75
2018-10-02T03:52:55.715Z,7.75
2018-10-02T03:53:55.625Z,7.75
2018-10-02T03:54:55.560Z,7.75
2018-10-02T03:55:55.534Z,7.75
2018-10-02T03:56:55.583Z,7.75
2018-10-02T03:57:55.640Z,7.81
2018-10-02T03:58:55.556Z,7.75
2018-10-02T03:59:55.722Z,7.75
2018-10-02T04:00:55.575Z,7.75
2018-10-02T04:01:55.688Z,7.69
2018-10-02T04:02:55.817Z,7.69
2018-10-02T04:03:55.699Z,7.69
2018-10-02T04:04:55.601Z,7.69
2018-10-02T04:05:55.779Z,7.75
2018-10-02T04:06:55.653Z,7.75
2018-10-02T04:07:55.609Z,7.75
2018-10-02T04:08:55.560Z,7.75
2018-10-02T04:09:55.507Z,7.75
2018-10-02T04:10:55.539Z,7.75
2018-10-02T04:11:55.557Z,7.75
2018-10-02T04:12:55.783Z,7.75
2018-10-02T04:13:55.561Z,7.75
2018-10-02T04:14:55.602Z,7.75
2018-10-02T04:15:55.484Z,7.75
2018-10-02T04:16:55.489Z,7.75
2018-10-02T04:17:55.488Z,7.81
2018-10-02T04:18:55.517Z,7.75
2018-10-02T04:19:55.555Z,7.75
2018-10-02T04:20:55.505Z,7.75
2018-10-02T04:21:55.488Z,7.69
2018-10-02T04:22:55.517Z,7.69
2018-10-02T04:23:55.508Z,7.69
2018-10-02T04:24:55.498Z,7.69
2018-10-02T04:25:55.507Z,7.62
2018-10-02T04:26:55.512Z,7.62
2018-10-02T04:27:56.071Z,7.62
2018-10-02T04:28:55.493Z,7.69
2018-10-02T04:29:55.489Z,7.62
2018-10-02T04:30:55.553Z,7.62
2018-10-02T04:31:55.488Z,7.69
2018-10-02T04:32:55.849Z,7.69
2018-10-02T04:33:56.767Z,7.69
2018-10-02T04:34:55.475Z,7.69
2018-10-02T04:35:55.495Z,7.62
2018-10-02T04:36:55.528Z,7.62
2018-10-02T04:37:55.687Z,7.62
2018-10-02T04:38:55.748Z,7.62
2018-10-02T04:39:55.827Z,7.62
2018-10-02T04:40:55.583Z,7.62
2018-10-02T04:41:55.510Z,7.62
2018-10-02T04:42:55.802Z,7.62
2018-10-02T04:43:55.565Z,7.62
2018-10-02T04:44:55.628Z,7.56
2018-10-02T04:45:55.811Z,7.56
2018-10-02T04:46:56.333Z,7.62
2018-10-02T04:47:55.538Z,7.62
2018-10-02T04:48:55.433Z,7.56
2018-10-02T04:49:55.448Z,7.56
2018-10-02T04:50:55.520Z,7.56
2018-10-02T04:51:55.431Z,7.56
2018-10-02T04:52:55.517Z,7.56
2018-10-02T04:53:55.505Z,7.56
2018-10-02T04:54:55.720Z,7.56
2018-10-02T04:55:56.475Z,7.56
2018-10-02T04:56:55.695Z,7.56
2018-10-02T04:57:55.439Z,7.56
2018-10-02T04:58:55.551Z,7.56
2018-10-02T04:59:55.490Z,7.5
2018-10-02T05:00:55.450Z,7.5
2018-10-02T05:01:55.466Z,7.5
2018-10-02T05:02:55.712Z,7.5
2018-10-02T05:03:55.632Z,7.5
2018-10-02T05:04:56.278Z,7.5
2018-10-02T05:05:55.556Z,7.5
2018-10-02T05:06:55.520Z,7.5
2018-10-02T05:07:55.417Z,7.5
2018-10-02T05:08:55.476Z,7.5
2018-10-02T05:09:55.542Z,7.5
2018-10-02T05:10:58.896Z,7.5
2018-10-02T05:11:55.443Z,7.5
2018-10-02T05:12:55.725Z,7.5
2018-10-02T05:13:56.745Z,7.5
2018-10-02T05:14:55.628Z,7.5
2018-10-02T05:15:55.439Z,7.44
2018-10-02T05:16:55.420Z,7.44
2018-10-02T05:17:55.409Z,7.44
2018-10-02T05:18:55.816Z,7.44
2018-10-02T05:19:55.508Z,7.44
2018-10-02T05:20:55.505Z,7.5
2018-10-02T05:21:55.415Z,7.5
2018-10-02T05:22:55.674Z,7.44
2018-10-02T05:23:55.406Z,7.44
2018-10-02T05:24:55.462Z,7.44
2018-10-02T05:25:55.476Z,7.44
2018-10-02T05:26:55.396Z,7.44
2018-10-02T05:27:55.558Z,7.5
2018-10-02T05:28:55.501Z,7.44
2018-10-02T05:29:55.729Z,7.5
2018-10-02T05:30:55.925Z,7.44
2018-10-02T05:31:55.659Z,7.5
2018-10-02T05:32:55.898Z,7.5
2018-10-02T05:33:55.687Z,7.5
2018-10-02T05:34:56.064Z,7.5
2018-10-02T05:35:55.562Z,7.5
2018-10-02T05:36:55.760Z,7.44
2018-10-02T05:37:55.588Z,7.44
2018-10-02T05:38:55.752Z,7.44
2018-10-02T05:39:55.824Z,7.44
2018-10-02T05:40:55.568Z,7.44
2018-10-02T05:41:55.797Z,7.37
2018-10-02T05:42:55.519Z,7.44
2018-10-02T05:43:56.399Z,7.44
2018-10-02T05:44:55.756Z,7.44
2018-10-02T05:45:55.887Z,7.44
2018-10-02T05:46:55.563Z,7.44
2018-10-02T05:47:55.697Z,7.44
2018-10-02T05:48:56.547Z,7.44
2018-10-02T05:49:56.338Z,7.44
2018-10-02T05:50:57.922Z,7.44
2018-10-02T05:51:57.236Z,7.44
2018-10-02T05:52:56.609Z,7.44
2018-10-02T05:53:55.397Z,7.44
2018-10-02T05:54:58.196Z,7.44
2018-10-02T05:55:58.176Z,7.44
2018-10-02T05:56:57.248Z,7.44
2018-10-02T05:57:55.569Z,7.37
2018-10-02T05:58:55.416Z,7.44
2018-10-02T05:59:55.354Z,7.44
2018-10-02T06:00:55.314Z,7.44
2018-10-02T06:01:55.331Z,7.44
2018-10-02T06:02:55.374Z,7.44
2018-10-02T06:03:57.335Z,7.37
2018-10-02T06:04:55.551Z,7.44
2018-10-02T06:05:55.458Z,7.44
2018-10-02T06:06:55.387Z,7.44
2018-10-02T06:07:55.446Z,7.44
2018-10-02T06:08:55.591Z,7.5
2018-10-02T06:09:55.835Z,7.5
2018-10-02T06:10:55.376Z,7.5
2018-10-02T06:11:55.596Z,7.5
2018-10-02T06:12:55.496Z,7.5
2018-10-02T06:13:55.517Z,7.5
2018-10-02T06:14:55.404Z,7.56
2018-10-02T06:15:55.638Z,7.56
2018-10-02T06:16:55.771Z,7.5
2018-10-02T06:17:55.798Z,7.56
2018-10-02T06:18:55.369Z,7.56
2018-10-02T06:19:55.561Z,7.56
2018-10-02T06:20:55.403Z,7.56
2018-10-02T06:21:55.403Z,7.56
2018-10-02T06:22:55.450Z,7.62
2018-10-02T06:23:55.503Z,7.62
2018-10-02T06:24:55.371Z,7.62
2018-10-02T06:25:55.321Z,7.62
2018-10-02T06:26:55.388Z,7.62
2018-10-02T06:27:55.347Z,7.69
2018-10-02T06:28:55.462Z,7.69
2018-10-02T06:29:55.326Z,7.69
2018-10-02T06:30:55.819Z,7.69
2018-10-02T06:31:55.466Z,7.69
2018-10-02T06:32:55.371Z,7.75
2018-10-02T06:33:55.422Z,7.75
2018-10-02T06:34:55.339Z,7.75
2018-10-02T06:35:55.312Z,7.81
2018-10-02T06:36:55.742Z,7.75
2018-10-02T06:37:55.794Z,7.81
2018-10-02T06:38:55.991Z,7.81
2018-10-02T06:39:55.389Z,7.81
2018-10-02T06:40:55.326Z,7.81
2018-10-02T06:41:55.357Z,7.81
2018-10-02T06:42:55.515Z,7.87
2018-10-02T06:43:55.325Z,7.87
2018-10-02T06:44:55.675Z,7.87
2018-10-02T06:45:55.339Z,7.87
2018-10-02T06:46:55.301Z,7.81
2018-10-02T06:47:55.331Z,7.87
2018-10-02T06:48:55.664Z,7.87
2018-10-02T06:49:55.261Z,7.87
2018-10-02T06:50:56.181Z,7.87
2018-10-02T06:51:56.473Z,7.87
2018-10-02T06:52:55.571Z,7.81
2018-10-02T06:53:55.468Z,7.81
2018-10-02T06:54:55.522Z,7.81
2018-10-02T06:55:55.356Z,7.87
2018-10-02T06:56:55.897Z,7.87
2018-10-02T06:57:55.525Z,7.87
2018-10-02T06:58:55.277Z,7.87
2018-10-02T06:59:55.271Z,7.87
2018-10-02T07:00:55.263Z,7.94
2018-10-02T07:01:55.304Z,7.87
2018-10-02T07:02:55.771Z,7.94
2018-10-02T07:03:55.316Z,7.94
2018-10-02T07:04:55.259Z,7.94
2018-10-02T07:05:55.265Z,7.94
2018-10-02T07:06:55.509Z,8
2018-10-02T07:07:55.258Z,8
2018-10-02T07:08:55.682Z,8
2018-10-02T07:09:55.223Z,8
2018-10-02T07:10:55.260Z,8.06
2018-10-02T07:11:55.236Z,8.06
2018-10-02T07:12:55.249Z,8.06
2018-10-02T07:13:55.202Z,8.13
2018-10-02T07:14:55.585Z,8.13
2018-10-02T07:15:55.296Z,8.19
2018-10-02T07:16:55.209Z,8.13
2018-10-02T07:17:55.222Z,8.19
2018-10-02T07:18:55.224Z,8.19
2018-10-02T07:19:55.202Z,8.13
2018-10-02T07:20:55.695Z,8.13
2018-10-02T07:21:55.239Z,8.06
2018-10-02T07:22:55.225Z,8.13
2018-10-02T07:23:55.208Z,8.13
2018-10-02T07:24:55.228Z,8.19
2018-10-02T07:25:55.269Z,8.19
2018-10-02T07:26:57.538Z,8.19
2018-10-02T07:27:57.797Z,8.25
2018-10-02T07:28:55.285Z,8.31
2018-10-02T07:29:55.520Z,8.31
2018-10-02T07:30:55.617Z,8.38
2018-10-02T07:31:55.474Z,8.44
2018-10-02T07:32:55.830Z,8.44
2018-10-02T07:33:56.159Z,8.44
2018-10-02T07:34:55.450Z,8.44
2018-10-02T07:35:55.203Z,8.44
2018-10-02T07:36:55.810Z,8.5
2018-10-02T07:37:55.329Z,8.44
2018-10-02T07:38:55.671Z,8.44
2018-10-02T07:39:55.231Z,8.44
2018-10-02T07:40:55.322Z,8.44
2018-10-02T07:41:56.041Z,8.44
2018-10-02T07:42:55.220Z,8.5
2018-10-02T07:43:55.131Z,8.44
2018-10-02T07:45:55.226Z,8.5
2018-10-02T07:46:55.316Z,8.56
2018-10-02T07:47:55.839Z,8.56
2018-10-02T07:48:55.462Z,8.56
2018-10-02T07:49:55.304Z,8.63
2018-10-02T07:50:55.622Z,8.63
2018-10-02T07:51:55.223Z,8.69
2018-10-02T07:52:55.188Z,8.75
2018-10-02T07:53:56.015Z,8.75
2018-10-02T07:54:55.148Z,8.81
2018-10-02T07:55:55.220Z,8.88
2018-10-02T07:56:55.970Z,8.94
2018-10-02T07:57:55.180Z,8.94
2018-10-02T07:58:55.554Z,9
2018-10-02T07:59:55.459Z,9
2018-10-02T08:00:55.285Z,9
2018-10-02T08:01:55.458Z,9
2018-10-02T08:02:55.904Z,9.06
2018-10-02T08:03:55.173Z,9.06
2018-10-02T08:04:56.275Z,9.13
2018-10-02T08:05:55.862Z,9.19
2018-10-02T08:06:55.168Z,9.19
2018-10-02T08:07:55.158Z,9.25
2018-10-02T08:08:55.777Z,9.25
2018-10-02T08:09:55.497Z,9.31
2018-10-02T08:10:55.158Z,9.31
2018-10-02T08:11:55.955Z,9.31
2018-10-02T08:12:55.173Z,9.38
2018-10-02T08:13:55.235Z,9.38
2018-10-02T08:14:55.851Z,9.44
2018-10-02T08:15:55.147Z,9.44
2018-10-02T08:16:55.189Z,9.5
2018-10-02T08:17:55.641Z,9.56
2018-10-02T08:18:55.959Z,9.56
2018-10-02T08:19:55.661Z,9.56
2018-10-02T08:20:55.944Z,9.56
2018-10-02T08:21:55.209Z,9.56
2018-10-02T08:22:55.275Z,9.5
2018-10-02T08:23:55.881Z,9.5
2018-10-02T08:24:55.252Z,9.5
2018-10-02T08:25:55.142Z,9.5
2018-10-02T08:26:56.232Z,9.5
2018-10-02T08:27:55.321Z,9.44
2018-10-02T08:28:55.165Z,9.5
2018-10-02T08:29:56.330Z,9.5
2018-10-02T08:30:55.151Z,9.5
2018-10-02T08:31:55.251Z,9.5
2018-10-02T08:32:55.516Z,9.5
2018-10-02T08:33:55.177Z,9.44
2018-10-02T08:34:55.098Z,9.5
2018-10-02T08:35:57.139Z,9.5
2018-10-02T08:36:55.090Z,9.5
2018-10-02T08:37:55.121Z,9.5
2018-10-02T08:38:55.430Z,9.56
2018-10-02T08:39:55.101Z,9.5
2018-10-02T08:40:55.108Z,9.5
2018-10-02T08:41:55.738Z,9.56
2018-10-02T08:42:55.214Z,9.56
2018-10-02T08:43:56.050Z,9.56
2018-10-02T08:44:55.909Z,9.63
2018-10-02T08:45:55.139Z,9.75
2018-10-02T08:46:55.117Z,9.75
2018-10-02T08:47:55.641Z,9.81
2018-10-02T08:48:55.150Z,9.88
2018-10-02T08:49:55.090Z,9.88
2018-10-02T08:50:55.593Z,9.94
2018-10-02T08:51:56.449Z,9.94
2018-10-02T08:52:55.131Z,10
2018-10-02T08:54:55.319Z,10.06
2018-10-02T08:55:55.099Z,10.06
2018-10-02T08:56:55.272Z,10.13
2018-10-02T08:57:55.323Z,10.19
2018-10-02T08:59:55.185Z,10.31
2018-10-02T09:00:55.555Z,10.31
2018-10-02T09:01:55.248Z,10.38
2018-10-02T09:02:55.200Z,10.38
2018-10-02T09:03:54.710Z,10.44
2018-10-02T09:04:55.206Z,10.44
2018-10-02T09:05:55.374Z,10.5
2018-10-02T09:06:55.355Z,10.56
2018-10-02T09:07:55.146Z,10.56
2018-10-02T09:08:55.162Z,10.63
2018-10-02T09:09:55.209Z,10.63
2018-10-02T09:10:55.208Z,10.63
2018-10-02T09:11:55.223Z,10.56
2018-10-02T09:12:55.661Z,10.63
2018-10-02T09:13:56.042Z,10.69
2018-10-02T09:14:55.091Z,10.63
2018-10-02T09:15:57.887Z,10.63
2018-10-02T09:16:55.073Z,10.63
2018-10-02T09:17:55.084Z,10.75
2018-10-02T09:18:55.752Z,10.69
2018-10-02T09:19:55.185Z,10.69
2018-10-02T09:20:56.091Z,10.75
2018-10-02T09:21:55.826Z,10.75
2018-10-02T09:22:55.111Z,10.75
2018-10-02T09:23:55.793Z,10.81
2018-10-02T09:24:55.776Z,10.81
2018-10-02T09:25:55.153Z,10.81
2018-10-02T09:26:55.310Z,10.81
2018-10-02T09:27:55.588Z,10.81
2018-10-02T09:28:55.048Z,10.81
2018-10-02T09:29:55.130Z,10.75
2018-10-02T09:30:56.826Z,10.75
2018-10-02T09:31:55.153Z,10.75
2018-10-02T09:32:55.174Z,10.75
2018-10-02T09:33:55.844Z,10.69
2018-10-02T09:34:55.242Z,10.69
2018-10-02T09:35:55.281Z,10.75
2018-10-02T09:36:56.027Z,10.75
2018-10-02T09:37:55.107Z,10.81
2018-10-02T09:38:55.268Z,10.75
2018-10-02T09:39:55.723Z,10.75
2018-10-02T09:40:55.338Z,10.75
2018-10-02T09:41:55.023Z,10.75
2018-10-02T09:42:55.923Z,10.75
2018-10-02T09:43:55.859Z,10.75
2018-10-02T09:44:55.195Z,10.75
2018-10-02T09:45:55.900Z,10.81
2018-10-02T09:46:55.176Z,10.81
2018-10-02T09:47:55.280Z,10.88
2018-10-02T09:48:55.465Z,10.88
2018-10-02T09:49:56.008Z,10.94
2018-10-02T09:50:55.876Z,10.94
2018-10-02T09:51:55.608Z,10.94
2018-10-02T09:52:55.139Z,10.94
2018-10-02T09:53:54.980Z,10.94
2018-10-02T09:54:55.684Z,10.94
2018-10-02T09:55:55.203Z,10.94
2018-10-02T09:56:55.567Z,10.88
2018-10-02T09:57:54.994Z,10.88
2018-10-02T09:58:54.990Z,10.88
2018-10-02T09:59:54.986Z,10.81
2018-10-02T10:00:55.600Z,10.88
2018-10-02T10:01:54.957Z,10.81
2018-10-02T10:02:55.499Z,10.81
2018-10-02T10:03:55.097Z,10.88
2018-10-02T10:04:54.970Z,10.81
2018-10-02T10:05:55.037Z,10.88
2018-10-02T10:06:55.012Z,10.88
2018-10-02T10:07:54.988Z,10.88
2018-10-02T10:08:55.012Z,10.81
2018-10-02T10:09:54.977Z,10.88
2018-10-02T10:10:54.983Z,10.88
2018-10-02T10:11:55.006Z,10.94
2018-10-02T10:12:55.035Z,10.94
2018-10-02T10:13:54.962Z,10.94
2018-10-02T10:14:54.995Z,11
2018-10-02T10:15:54.986Z,10.94
2018-10-02T10:16:55.867Z,10.94
2018-10-02T10:17:55.088Z,10.94
2018-10-02T10:18:55.158Z,10.94
2018-10-02T10:19:55.161Z,10.94
2018-10-02T10:20:55.391Z,10.94
2018-10-02T10:21:54.950Z,11
2018-10-02T10:22:55.741Z,11
2018-10-02T10:23:55.136Z,11.06
2018-10-02T10:24:55.044Z,11.06
2018-10-02T10:25:55.013Z,11.06
2018-10-02T10:26:55.270Z,11.06
2018-10-02T10:27:54.974Z,11.06
2018-10-02T10:28:55.635Z,11.06
2018-10-02T10:29:54.950Z,11.06
2018-10-02T10:30:54.940Z,11.12
2018-10-02T10:31:55.251Z,11.06
2018-10-02T10:32:55.080Z,11.12
2018-10-02T10:33:55.368Z,11.12
2018-10-02T10:34:55.406Z,11.06
2018-10-02T10:35:54.946Z,11.06
2018-10-02T10:36:55.018Z,11.06
2018-10-02T10:37:54.939Z,11.06
2018-10-02T10:38:54.940Z,11.12
2018-10-02T10:39:55.744Z,11.12
2018-10-02T10:40:55.612Z,11.12
2018-10-02T10:41:55.077Z,11.12
2018-10-02T10:42:55.118Z,11.12
2018-10-02T10:43:54.971Z,11.12
2018-10-02T10:44:54.970Z,11.12
2018-10-02T10:45:54.951Z,11.12
2018-10-02T10:46:55.650Z,11.12
2018-10-02T10:47:55.172Z,11.12
2018-10-02T10:48:55.156Z,11.12
2018-10-02T10:49:55.021Z,11.19
2018-10-02T10:50:54.898Z,11.19
2018-10-02T10:51:55.766Z,11.25
2018-10-02T10:52:55.636Z,11.19
2018-10-02T10:53:55.002Z,11.25
2018-10-02T10:54:54.906Z,11.25
2018-10-02T10:55:54.983Z,11.25
2018-10-02T10:56:55.207Z,11.25
2018-10-02T10:57:55.048Z,11.25
2018-10-02T10:58:55.476Z,11.25
2018-10-02T10:59:55.042Z,11.19
2018-10-02T11:00:55.125Z,11.25
2018-10-02T11:01:54.950Z,11.19
2018-10-02T11:02:55.568Z,11.19
2018-10-02T11:03:54.934Z,11.25
2018-10-02T11:04:55.351Z,11.25
2018-10-02T11:05:54.873Z,11.25
2018-10-02T11:06:54.954Z,11.25
2018-10-02T11:07:55.199Z,11.25
2018-10-02T11:08:55.099Z,11.25
2018-10-02T11:09:55.079Z,11.31
2018-10-02T11:10:55.339Z,11.31
2018-10-02T11:11:54.865Z,11.38
2018-10-02T11:12:54.896Z,11.38
2018-10-02T11:13:55.381Z,11.38
2018-10-02T11:14:54.967Z,11.44
2018-10-02T11:15:55.061Z,11.44
2018-10-02T11:16:55.084Z,11.44
2018-10-02T11:17:54.898Z,11.44
2018-10-02T11:18:55.343Z,11.38
2018-10-02T11:19:54.960Z,11.38
2018-10-02T11:20:54.940Z,11.38
2018-10-02T11:21:54.897Z,11.31
2018-10-02T11:22:54.879Z,11.31
2018-10-02T11:23:55.189Z,11.31
2018-10-02T11:24:54.865Z,11.31
2018-10-02T11:25:55.958Z,11.31
2018-10-02T11:26:54.889Z,11.31
2018-10-02T11:27:54.854Z,11.31
2018-10-02T11:28:54.848Z,11.31
2018-10-02T11:29:55.463Z,11.31
2018-10-02T11:30:54.917Z,11.31
2018-10-02T11:31:54.842Z,11.31
2018-10-02T11:32:54.900Z,11.38
2018-10-02T11:33:54.884Z,11.38
2018-10-02T11:34:54.832Z,11.31
2018-10-02T11:35:54.842Z,11.31
2018-10-02T11:36:54.860Z,11.38
2018-10-02T11:37:54.852Z,11.38
2018-10-02T11:38:54.839Z,11.31
2018-10-02T11:39:54.864Z,11.38
2018-10-02T11:40:54.845Z,11.31
2018-10-02T11:41:54.893Z,11.31
2018-10-02T11:42:54.908Z,11.38
2018-10-02T11:43:55.231Z,11.31
2018-10-02T11:44:57.221Z,11.38
2018-10-02T11:45:54.965Z,11.31
2018-10-02T11:46:54.857Z,11.25
2018-10-02T11:47:54.835Z,11.25
2018-10-02T11:48:54.903Z,11.25
2018-10-02T11:49:56.378Z,11.19
2018-10-02T11:50:55.446Z,11.19
2018-10-02T11:51:54.844Z,11.19
2018-10-02T11:52:55.104Z,11.12
2018-10-02T11:53:55.016Z,11.12
2018-10-02T11:54:54.802Z,11.12
2018-10-02T11:55:55.212Z,11.12
2018-10-02T11:56:54.808Z,11.12
2018-10-02T11:57:54.800Z,11.06
2018-10-02T11:58:54.947Z,11.12
2018-10-02T11:59:55.237Z,11.06
2018-10-02T12:00:55.702Z,11.06
2018-10-02T12:01:55.237Z,11.06
2018-10-02T12:02:54.999Z,11.06
2018-10-02T12:03:54.852Z,11
2018-10-02T12:04:54.838Z,11
2018-10-02T12:05:54.789Z,11
2018-10-02T12:06:55.342Z,11
2018-10-02T12:07:55.082Z,11.06
2018-10-02T12:08:55.348Z,11.06
2018-10-02T12:09:54.882Z,11.06
2018-10-02T12:10:54.865Z,11.06
2018-10-02T12:11:54.783Z,11.06
2018-10-02T12:12:55.677Z,11
2018-10-02T12:13:55.991Z,10.94
2018-10-02T12:14:55.283Z,10.94
2018-10-02T12:15:54.881Z,10.94
2018-10-02T12:16:54.925Z,11
2018-10-02T12:17:55.191Z,11
2018-10-02T12:18:54.989Z,10.94
2018-10-02T12:19:57.835Z,10.94
2018-10-02T12:20:54.840Z,10.94
2018-10-02T12:21:54.867Z,11
2018-10-02T12:22:54.845Z,11
2018-10-02T12:23:55.096Z,11
2018-10-02T12:24:54.862Z,11
2018-10-02T12:25:54.881Z,11
2018-10-02T12:26:54.793Z,11.06
2018-10-02T12:27:54.806Z,11.06
2018-10-02T12:28:54.817Z,11.06
2018-10-02T12:29:54.934Z,11.06
2018-10-02T12:30:54.776Z,11.12
2018-10-02T12:31:55.570Z,11.06
2018-10-02T12:32:54.800Z,11.12
2018-10-02T12:33:54.889Z,11.06
2018-10-02T12:35:54.768Z,11.06
2018-10-02T12:36:55.090Z,11.06
2018-10-02T12:37:54.787Z,11.06
2018-10-02T12:38:55.126Z,11.12
2018-10-02T12:39:54.902Z,11.06
2018-10-02T12:40:54.856Z,11.12
2018-10-02T12:41:55.014Z,11.12
2018-10-02T12:42:54.821Z,11.12
2018-10-02T12:43:54.795Z,11.19
2018-10-02T12:44:54.890Z,11.19
2018-10-02T12:45:54.798Z,11.19
2018-10-02T12:46:55.462Z,11.19
2018-10-02T12:47:57.100Z,11.25
2018-10-02T12:48:58.812Z,11.25
2018-10-02T12:49:57.586Z,11.19
2018-10-02T12:50:59.232Z,11.25
2018-10-02T12:51:58.649Z,11.25
2018-10-02T12:53:00.237Z,11.25
2018-10-02T12:53:54.738Z,11.25
2018-10-02T12:54:54.738Z,11.25
2018-10-02T12:55:54.746Z,11.25
2018-10-02T12:56:54.747Z,11.25
2018-10-02T12:57:54.753Z,11.25
2018-10-02T12:58:54.827Z,11.25
2018-10-02T12:59:54.806Z,11.25
2018-10-02T13:00:54.794Z,11.19
2018-10-02T13:01:54.720Z,11.19
2018-10-02T13:02:55.685Z,11.25
2018-10-02T13:03:54.753Z,11.19
2018-10-02T13:04:54.713Z,11.25
2018-10-02T13:05:54.698Z,11.25
2018-10-02T13:06:55.009Z,11.25
2018-10-02T13:07:54.976Z,11.25
2018-10-02T13:08:54.752Z,11.31
2018-10-02T13:09:55.228Z,11.25
2018-10-02T13:10:55.024Z,11.25
2018-10-02T13:11:54.799Z,11.25
2018-10-02T13:12:54.954Z,11.25
2018-10-02T13:13:54.845Z,11.25
2018-10-02T13:14:54.730Z,11.25
2018-10-02T13:15:54.947Z,11.31
2018-10-02T13:16:54.820Z,11.31
2018-10-02T13:17:54.740Z,11.38
2018-10-02T13:18:54.804Z,11.31
2018-10-02T13:19:55.427Z,11.31
2018-10-02T13:20:54.700Z,11.31